sensor_id;sensor_type;location;lat;lon;timestamp;temperature;humidity
3466;DHT22;1747;48.884;9.160;2023-02-12T08:08:24;6.90;99.90
3466;DHT22;1747;48.884;9.160;2023-02-12T08:10:54;7.00;99.90
3466;DHT22;1747;48.884;9.160;2023-02-12T08:13:21;7.00;99.90
3466;DHT22;1747;48.884;9.160;2023-02-12T08:15:48;7.10;99.90
3466;DHT22;1747;48.884;9.160;2023-02-12T08:18:15;7.10;99.90
3466;DHT22;1747;48.884;9.160;2023-02-12T08:20:42;7.10;99.90
3466;DHT22;1747;48.884;9.160;2023-02-12T08:23:08;7.20;99.90
3466;DHT22;1747;48.884;9.160;2023-02-12T08:25:37;7.20;99.90
3466;DHT22;1747;48.884;9.160;2023-02-12T08:28:04;7.20;99.90
3466;DHT22;1747;48.884;9.160;2023-02-12T08:30:31;7.30;99.90
3466;DHT22;1747;48.884;9.160;2023-02-12T08:32:57;7.40;99.90
3466;DHT22;1747;48.884;9.160;2023-02-12T08:35:24;7.40;99.90
3466;DHT22;1747;48.884;9.160;2023-02-12T08:37:51;7.50;99.90
3466;DHT22;1747;48.884;9.160;2023-02-12T08:40:18;7.50;99.90
3466;DHT22;1747;48.884;9.160;2023-02-12T08:42:46;7.60;99.90
3466;DHT22;1747;48.884;9.160;2023-02-12T08:45:13;7.70;99.90
3466;DHT22;1747;48.884;9.160;2023-02-12T08:47:40;7.70;99.90
3466;DHT22;1747;48.884;9.160;2023-02-12T08:50:08;7.70;99.90
3466;DHT22;1747;48.884;9.160;2023-02-12T08:52:35;7.80;99.90
3466;DHT22;1747;48.884;9.160;2023-02-12T08:55:01;7.90;99.90
3466;DHT22;1747;48.884;9.160;2023-02-12T08:57:28;7.90;99.90
3466;DHT22;1747;48.884;9.160;2023-02-12T08:59:57;7.70;99.90
3466;DHT22;1747;48.884;9.160;2023-02-12T09:02:24;7.70;99.90
3466;DHT22;1747;48.884;9.160;2023-02-12T09:04:50;7.70;99.90
3466;DHT22;1747;48.884;9.160;2023-02-12T09:07:17;7.80;99.90
3466;DHT22;1747;48.884;9.160;2023-02-12T09:09:44;7.80;99.90
3466;DHT22;1747;48.884;9.160;2023-02-12T09:12:11;7.90;99.90
3466;DHT22;1747;48.884;9.160;2023-02-12T09:14:38;7.90;99.90
3466;DHT22;1747;48.884;9.160;2023-02-12T09:17:06;8.10;99.90
3466;DHT22;1747;48.884;9.160;2023-02-12T09:19:33;8.10;99.90
3466;DHT22;1747;48.884;9.160;2023-02-12T09:22:01;8.20;99.90
3466;DHT22;1747;48.884;9.160;2023-02-12T09:24:27;8.20;99.90
3466;DHT22;1747;48.884;9.160;2023-02-12T09:26:54;8.20;99.90
3466;DHT22;1747;48.884;9.160;2023-02-12T09:29:21;8.30;99.90
3466;DHT22;1747;48.884;9.160;2023-02-12T09:31:48;8.30;99.90
3466;DHT22;1747;48.884;9.160;2023-02-12T09:34:16;8.30;99.90
3466;DHT22;1747;48.884;9.160;2023-02-12T09:36:43;8.40;99.90
3466;DHT22;1747;48.884;9.160;2023-02-12T09:39:10;8.50;99.90
3466;DHT22;1747;48.884;9.160;2023-02-12T09:41:59;8.50;99.90
3466;DHT22;1747;48.884;9.160;2023-02-12T09:44:35;8.70;99.90
3466;DHT22;1747;48.884;9.160;2023-02-12T09:47:12;8.80;99.90
3466;DHT22;1747;48.884;9.160;2023-02-12T09:50:00;8.80;99.90
3466;DHT22;1747;48.884;9.160;2023-02-12T09:52:29;8.80;99.90
3466;DHT22;1747;48.884;9.160;2023-02-12T09:54:57;8.80;99.90
3466;DHT22;1747;48.884;9.160;2023-02-12T09:57:26;8.90;99.90
3466;DHT22;1747;48.884;9.160;2023-02-12T09:59:58;9.00;99.90
3466;DHT22;1747;48.884;9.160;2023-02-12T10:02:26;9.10;99.90
3466;DHT22;1747;48.884;9.160;2023-02-12T10:04:54;9.20;99.90
3466;DHT22;1747;48.884;9.160;2023-02-12T10:07:32;9.30;99.90
3466;DHT22;1747;48.884;9.160;2023-02-12T10:10:09;9.40;99.90
3466;DHT22;1747;48.884;9.160;2023-02-12T10:12:48;9.50;99.90
3466;DHT22;1747;48.884;9.160;2023-02-12T10:15:36;9.70;99.90
3466;DHT22;1747;48.884;9.160;2023-02-12T10:18:20;9.60;99.90
3466;DHT22;1747;48.884;9.160;2023-02-12T10:21:10;9.70;99.90
3466;DHT22;1747;48.884;9.160;2023-02-12T10:26:35;9.60;99.90
3466;DHT22;1747;48.884;9.160;2023-02-12T10:29:11;9.60;99.90
3466;DHT22;1747;48.884;9.160;2023-02-12T10:31:41;9.60;99.90
3466;DHT22;1747;48.884;9.160;2023-02-12T10:34:15;9.70;99.90
3466;DHT22;1747;48.884;9.160;2023-02-12T10:36:46;9.70;99.90
3466;DHT22;1747;48.884;9.160;2023-02-12T10:39:19;9.70;99.90
3466;DHT22;1747;48.884;9.160;2023-02-12T10:41:49;9.70;99.90
3466;DHT22;1747;48.884;9.160;2023-02-12T10:44:18;9.70;99.90
3466;DHT22;1747;48.884;9.160;2023-02-12T10:46:45;9.80;99.90
3466;DHT22;1747;48.884;9.160;2023-02-12T10:49:15;9.90;99.90
3466;DHT22;1747;48.884;9.160;2023-02-12T10:52:02;10.00;99.90
3466;DHT22;1747;48.884;9.160;2023-02-12T10:54:39;10.10;99.90
3466;DHT22;1747;48.884;9.160;2023-02-12T10:57:13;10.10;99.90
3466;DHT22;1747;48.884;9.160;2023-02-12T11:00:28;10.10;99.90
3466;DHT22;1747;48.884;9.160;2023-02-12T11:03:29;10.20;99.90
3466;DHT22;1747;48.884;9.160;2023-02-12T11:06:11;10.20;99.90
3466;DHT22;1747;48.884;9.160;2023-02-12T11:08:40;10.30;99.90
3466;DHT22;1747;48.884;9.160;2023-02-12T11:11:10;10.30;99.90
3466;DHT22;1747;48.884;9.160;2023-02-12T11:13:39;10.40;99.90
3466;DHT22;1747;48.884;9.160;2023-02-12T11:16:07;10.40;99.90
3466;DHT22;1747;48.884;9.160;2023-02-12T11:18:35;10.50;99.90
3466;DHT22;1747;48.884;9.160;2023-02-12T11:21:05;10.40;99.90
3466;DHT22;1747;48.884;9.160;2023-02-12T11:23:34;10.40;99.90
3466;DHT22;1747;48.884;9.160;2023-02-12T11:26:05;10.50;99.90
3466;DHT22;1747;48.884;9.160;2023-02-12T11:28:34;10.40;99.90
3466;DHT22;1747;48.884;9.160;2023-02-12T11:31:03;10.40;99.90
3466;DHT22;1747;48.884;9.160;2023-02-12T11:33:43;10.50;99.90
3466;DHT22;1747;48.884;9.160;2023-02-12T11:36:15;10.50;99.90
3466;DHT22;1747;48.884;9.160;2023-02-12T11:38:48;10.60;99.90
3466;DHT22;1747;48.884;9.160;2023-02-12T11:41:23;10.60;99.90
3466;DHT22;1747;48.884;9.160;2023-02-12T11:43:52;10.60;99.90
3466;DHT22;1747;48.884;9.160;2023-02-12T11:46:20;10.70;99.90
3466;DHT22;1747;48.884;9.160;2023-02-12T11:48:48;10.80;99.90
3466;DHT22;1747;48.884;9.160;2023-02-12T11:51:22;10.70;99.90
3466;DHT22;1747;48.884;9.160;2023-02-12T11:53:52;10.70;99.90
3466;DHT22;1747;48.884;9.160;2023-02-12T11:56:21;10.70;99.90
3466;DHT22;1747;48.884;9.160;2023-02-12T11:58:49;10.70;99.90
3466;DHT22;1747;48.884;9.160;2023-02-12T12:01:19;10.80;99.90
3466;DHT22;1747;48.884;9.160;2023-02-12T12:03:53;10.90;99.90
3466;DHT22;1747;48.884;9.160;2023-02-12T12:06:32;11.00;99.90
3466;DHT22;1747;48.884;9.160;2023-02-12T12:09:10;11.10;99.90
3466;DHT22;1747;48.884;9.160;2023-02-12T12:11:46;11.20;99.90
3466;DHT22;1747;48.884;9.160;2023-02-12T12:14:23;11.20;99.90
3466;DHT22;1747;48.884;9.160;2023-02-12T12:16:56;11.30;99.90
3466;DHT22;1747;48.884;9.160;2023-02-12T12:19:47;11.30;99.90
3466;DHT22;1747;48.884;9.160;2023-02-12T12:22:39;11.30;99.90
3466;DHT22;1747;48.884;9.160;2023-02-12T12:25:15;11.40;99.90
3466;DHT22;1747;48.884;9.160;2023-02-12T12:27:55;11.50;99.90
3466;DHT22;1747;48.884;9.160;2023-02-12T12:33:32;11.70;99.90
3466;DHT22;1747;48.884;9.160;2023-02-12T12:39:26;12.10;99.90
3466;DHT22;1747;48.884;9.160;2023-02-12T12:45:05;12.50;99.90
3466;DHT22;1747;48.884;9.160;2023-02-12T12:47:44;12.90;99.90
3466;DHT22;1747;48.884;9.160;2023-02-12T12:50:27;13.30;99.90
3466;DHT22;1747;48.884;9.160;2023-02-12T12:53:06;13.80;99.90
3466;DHT22;1747;48.884;9.160;2023-02-12T12:55:47;14.10;99.90
3466;DHT22;1747;48.884;9.160;2023-02-12T12:58:24;14.00;99.90
3466;DHT22;1747;48.884;9.160;2023-02-12T13:01:33;14.20;99.90
3466;DHT22;1747;48.884;9.160;2023-02-12T13:04:17;14.30;99.90
3466;DHT22;1747;48.884;9.160;2023-02-12T13:07:08;14.40;99.90
3466;DHT22;1747;48.884;9.160;2023-02-12T13:09:47;14.20;99.90
3466;DHT22;1747;48.884;9.160;2023-02-12T13:12:41;14.30;99.90
3466;DHT22;1747;48.884;9.160;2023-02-12T13:15:18;14.40;99.90
3466;DHT22;1747;48.884;9.160;2023-02-12T13:17:52;14.50;99.90
3466;DHT22;1747;48.884;9.160;2023-02-12T13:20:26;15.00;99.90
3466;DHT22;1747;48.884;9.160;2023-02-12T13:22:59;15.50;99.90
3466;DHT22;1747;48.884;9.160;2023-02-12T13:25:30;16.00;99.90
3466;DHT22;1747;48.884;9.160;2023-02-12T13:28:04;16.00;99.90
3466;DHT22;1747;48.884;9.160;2023-02-12T13:30:38;16.40;99.90
3466;DHT22;1747;48.884;9.160;2023-02-12T13:33:14;16.70;99.90
3466;DHT22;1747;48.884;9.160;2023-02-12T13:35:46;16.70;99.90
3466;DHT22;1747;48.884;9.160;2023-02-12T13:38:18;16.80;99.90
3466;DHT22;1747;48.884;9.160;2023-02-12T13:40:47;17.00;99.90
3466;DHT22;1747;48.884;9.160;2023-02-12T13:43:24;17.10;99.60
3466;DHT22;1747;48.884;9.160;2023-02-12T13:46:00;17.40;99.00
3466;DHT22;1747;48.884;9.160;2023-02-12T13:48:51;17.70;98.10
3466;DHT22;1747;48.884;9.160;2023-02-12T13:51:28;17.70;97.70
3466;DHT22;1747;48.884;9.160;2023-02-12T13:54:13;17.80;97.10
3466;DHT22;1747;48.884;9.160;2023-02-12T13:56:44;17.60;97.20
3466;DHT22;1747;48.884;9.160;2023-02-12T13:59:37;17.70;96.80
3466;DHT22;1747;48.884;9.160;2023-02-12T14:02:05;17.40;96.40
3466;DHT22;1747;48.884;9.160;2023-02-12T14:04:56;17.40;96.20
3466;DHT22;1747;48.884;9.160;2023-02-12T14:07:40;17.50;96.50
3466;DHT22;1747;48.884;9.160;2023-02-12T15:16:05;18.10;92.50
3466;DHT22;1747;48.884;9.160;2023-02-12T15:18:43;18.00;92.70
3466;DHT22;1747;48.884;9.160;2023-02-12T15:21:17;18.10;92.40
3466;DHT22;1747;48.884;9.160;2023-02-12T15:23:46;18.00;92.70
3466;DHT22;1747;48.884;9.160;2023-02-12T15:26:15;18.20;92.60
3466;DHT22;1747;48.884;9.160;2023-02-12T15:28:47;18.10;92.60
3466;DHT22;1747;48.884;9.160;2023-02-12T15:31:19;18.10;92.60
3466;DHT22;1747;48.884;9.160;2023-02-12T15:33:52;18.10;92.30
3466;DHT22;1747;48.884;9.160;2023-02-12T15:36:23;18.00;92.90
3466;DHT22;1747;48.884;9.160;2023-02-12T15:38:53;18.10;92.30
3466;DHT22;1747;48.884;9.160;2023-02-12T15:41:33;18.10;92.30
3466;DHT22;1747;48.884;9.160;2023-02-12T15:44:02;18.10;92.20
3466;DHT22;1747;48.884;9.160;2023-02-12T15:46:32;18.00;92.20
3466;DHT22;1747;48.884;9.160;2023-02-12T15:48:59;17.70;92.50
3466;DHT22;1747;48.884;9.160;2023-02-12T15:51:29;17.60;93.00
3466;DHT22;1747;48.884;9.160;2023-02-12T15:54:00;17.60;92.50
3466;DHT22;1747;48.884;9.160;2023-02-12T15:56:30;17.50;92.90
3466;DHT22;1747;48.884;9.160;2023-02-12T15:59:02;17.40;93.00
3466;DHT22;1747;48.884;9.160;2023-02-12T16:01:32;17.10;93.20
3466;DHT22;1747;48.884;9.160;2023-02-12T16:04:02;16.80;93.60
3466;DHT22;1747;48.884;9.160;2023-02-12T16:06:31;16.50;94.00
3466;DHT22;1747;48.884;9.160;2023-02-12T18:00:15;8.90;99.90
3466;DHT22;1747;48.884;9.160;2023-02-12T18:02:42;8.80;99.90
3466;DHT22;1747;48.884;9.160;2023-02-12T18:05:08;8.80;99.90
3466;DHT22;1747;48.884;9.160;2023-02-12T18:07:35;8.70;99.90
3466;DHT22;1747;48.884;9.160;2023-02-12T18:10:03;8.60;99.90
3466;DHT22;1747;48.884;9.160;2023-02-12T18:12:30;8.50;99.90
3466;DHT22;1747;48.884;9.160;2023-02-12T18:14:57;8.50;99.90
3466;DHT22;1747;48.884;9.160;2023-02-12T18:17:26;8.30;99.90
3466;DHT22;1747;48.884;9.160;2023-02-12T18:19:53;8.10;99.90
3466;DHT22;1747;48.884;9.160;2023-02-12T18:22:20;8.00;99.90
3466;DHT22;1747;48.884;9.160;2023-02-12T18:24:48;7.90;99.90
3466;DHT22;1747;48.884;9.160;2023-02-12T18:27:16;7.80;99.90
3466;DHT22;1747;48.884;9.160;2023-02-12T18:29:43;7.60;99.90
3466;DHT22;1747;48.884;9.160;2023-02-12T18:32:10;7.50;99.90
3466;DHT22;1747;48.884;9.160;2023-02-12T18:34:42;7.50;99.90
3466;DHT22;1747;48.884;9.160;2023-02-12T18:37:10;7.30;99.90
3466;DHT22;1747;48.884;9.160;2023-02-12T18:39:37;7.10;99.90
3466;DHT22;1747;48.884;9.160;2023-02-12T18:42:05;7.10;99.90
3466;DHT22;1747;48.884;9.160;2023-02-12T18:44:32;7.20;99.90
3466;DHT22;1747;48.884;9.160;2023-02-12T18:46:58;7.10;99.90
3466;DHT22;1747;48.884;9.160;2023-02-12T18:49:26;7.10;99.90
3466;DHT22;1747;48.884;9.160;2023-02-12T18:51:54;7.20;99.90
3466;DHT22;1747;48.884;9.160;2023-02-12T18:54:22;7.20;99.90
3466;DHT22;1747;48.884;9.160;2023-02-12T18:56:51;7.30;99.90
3466;DHT22;1747;48.884;9.160;2023-02-12T18:59:19;7.30;99.90
3466;DHT22;1747;48.884;9.160;2023-02-12T19:01:46;7.30;99.90
3466;DHT22;1747;48.884;9.160;2023-02-12T19:04:16;7.20;99.90
3466;DHT22;1747;48.884;9.160;2023-02-12T19:06:45;7.20;99.90
3466;DHT22;1747;48.884;9.160;2023-02-12T19:09:14;7.00;99.90
3466;DHT22;1747;48.884;9.160;2023-02-12T19:11:42;6.90;99.90
3466;DHT22;1747;48.884;9.160;2023-02-12T19:14:11;6.90;99.90
3466;DHT22;1747;48.884;9.160;2023-02-12T19:16:38;6.90;99.90
3466;DHT22;1747;48.884;9.160;2023-02-12T19:19:05;6.90;99.90
3466;DHT22;1747;48.884;9.160;2023-02-12T19:21:32;6.80;99.90
3466;DHT22;1747;48.884;9.160;2023-02-12T19:24:01;6.70;99.90
3466;DHT22;1747;48.884;9.160;2023-02-12T19:26:31;6.60;99.90
3466;DHT22;1747;48.884;9.160;2023-02-12T19:28:59;6.60;99.90
3466;DHT22;1747;48.884;9.160;2023-02-12T19:31:28;6.60;99.90
3466;DHT22;1747;48.884;9.160;2023-02-12T19:33:58;6.50;99.90
3466;DHT22;1747;48.884;9.160;2023-02-12T19:36:27;6.50;99.90
3466;DHT22;1747;48.884;9.160;2023-02-12T19:38:58;6.50;99.90
3466;DHT22;1747;48.884;9.160;2023-02-12T19:41:27;6.40;99.90
3466;DHT22;1747;48.884;9.160;2023-02-12T19:43:57;6.40;99.90
3466;DHT22;1747;48.884;9.160;2023-02-12T19:46:25;6.30;99.90
3466;DHT22;1747;48.884;9.160;2023-02-12T19:48:55;6.30;99.90
3466;DHT22;1747;48.884;9.160;2023-02-12T19:51:22;5.80;99.90
3466;DHT22;1747;48.884;9.160;2023-02-12T19:53:51;5.70;99.90
3466;DHT22;1747;48.884;9.160;2023-02-12T19:56:18;5.40;99.90
3466;DHT22;1747;48.884;9.160;2023-02-12T19:58:45;5.30;99.90
3466;DHT22;1747;48.884;9.160;2023-02-12T20:01:15;5.20;99.90
3466;DHT22;1747;48.884;9.160;2023-02-12T20:03:43;5.20;99.90
3466;DHT22;1747;48.884;9.160;2023-02-12T20:06:12;5.30;99.90
3466;DHT22;1747;48.884;9.160;2023-02-12T20:08:40;5.30;99.90
3466;DHT22;1747;48.884;9.160;2023-02-12T20:11:11;5.40;99.90
3466;DHT22;1747;48.884;9.160;2023-02-12T20:13:38;5.40;99.90
3466;DHT22;1747;48.884;9.160;2023-02-12T20:23:53;5.20;99.90
3466;DHT22;1747;48.884;9.160;2023-02-12T20:26:22;5.20;99.90
3466;DHT22;1747;48.884;9.160;2023-02-12T20:28:50;5.20;99.90
3466;DHT22;1747;48.884;9.160;2023-02-12T20:31:19;5.10;99.90
3466;DHT22;1747;48.884;9.160;2023-02-12T20:33:47;5.10;99.90
3466;DHT22;1747;48.884;9.160;2023-02-12T20:36:14;5.10;99.90
3466;DHT22;1747;48.884;9.160;2023-02-12T20:38:42;5.10;99.90
3466;DHT22;1747;48.884;9.160;2023-02-12T20:41:10;5.10;99.90
3466;DHT22;1747;48.884;9.160;2023-02-12T20:43:38;5.00;99.90
3466;DHT22;1747;48.884;9.160;2023-02-12T20:46:06;5.00;99.90
3466;DHT22;1747;48.884;9.160;2023-02-12T20:48:34;5.00;99.90
3466;DHT22;1747;48.884;9.160;2023-02-12T20:51:03;5.00;99.90
3466;DHT22;1747;48.884;9.160;2023-02-12T20:53:31;4.90;99.90
3466;DHT22;1747;48.884;9.160;2023-02-12T20:56:02;4.60;99.90
3466;DHT22;1747;48.884;9.160;2023-02-12T20:58:31;4.50;99.90
3466;DHT22;1747;48.884;9.160;2023-02-12T21:01:05;4.30;99.90
3466;DHT22;1747;48.884;9.160;2023-02-12T21:03:32;4.40;99.90
3466;DHT22;1747;48.884;9.160;2023-02-12T21:06:00;4.40;99.90
3466;DHT22;1747;48.884;9.160;2023-02-12T21:08:27;4.20;99.90
3466;DHT22;1747;48.884;9.160;2023-02-12T21:10:58;4.10;99.90
3466;DHT22;1747;48.884;9.160;2023-02-12T21:13:25;4.10;99.90
3466;DHT22;1747;48.884;9.160;2023-02-12T21:16:04;4.10;99.90
3466;DHT22;1747;48.884;9.160;2023-02-12T21:18:31;4.00;99.90
3466;DHT22;1747;48.884;9.160;2023-02-12T21:21:02;3.90;99.90
3466;DHT22;1747;48.884;9.160;2023-02-12T21:23:31;3.90;99.90
3466;DHT22;1747;48.884;9.160;2023-02-12T21:26:00;3.90;99.90
3466;DHT22;1747;48.884;9.160;2023-02-12T21:28:27;4.00;99.90
3466;DHT22;1747;48.884;9.160;2023-02-12T21:30:54;4.00;99.90
3466;DHT22;1747;48.884;9.160;2023-02-12T21:33:23;4.10;99.90
3466;DHT22;1747;48.884;9.160;2023-02-12T21:35:50;3.90;99.90
3466;DHT22;1747;48.884;9.160;2023-02-12T21:38:16;4.00;99.90
3466;DHT22;1747;48.884;9.160;2023-02-12T21:40:43;4.00;99.90
3466;DHT22;1747;48.884;9.160;2023-02-12T21:43:10;4.10;99.90
3466;DHT22;1747;48.884;9.160;2023-02-12T21:45:56;4.20;99.90
3466;DHT22;1747;48.884;9.160;2023-02-12T21:48:24;4.30;99.90
3466;DHT22;1747;48.884;9.160;2023-02-12T21:50:51;4.30;99.90
3466;DHT22;1747;48.884;9.160;2023-02-12T21:53:17;4.30;99.90
3466;DHT22;1747;48.884;9.160;2023-02-12T21:55:46;4.30;99.90
3466;DHT22;1747;48.884;9.160;2023-02-12T21:58:13;4.30;99.90
3466;DHT22;1747;48.884;9.160;2023-02-12T22:00:40;4.20;99.90
3466;DHT22;1747;48.884;9.160;2023-02-12T22:03:07;4.20;99.90
3466;DHT22;1747;48.884;9.160;2023-02-12T22:05:35;4.20;99.90
3466;DHT22;1747;48.884;9.160;2023-02-12T22:08:02;4.20;99.90
3466;DHT22;1747;48.884;9.160;2023-02-12T22:10:30;4.20;99.90
3466;DHT22;1747;48.884;9.160;2023-02-12T22:12:56;4.20;99.90
3466;DHT22;1747;48.884;9.160;2023-02-12T22:15:23;4.20;99.90
3466;DHT22;1747;48.884;9.160;2023-02-12T22:17:50;4.20;99.90
3466;DHT22;1747;48.884;9.160;2023-02-12T22:20:17;4.20;99.90
3466;DHT22;1747;48.884;9.160;2023-02-12T22:22:45;4.30;99.90
3466;DHT22;1747;48.884;9.160;2023-02-12T22:25:12;4.40;99.90
3466;DHT22;1747;48.884;9.160;2023-02-12T22:27:39;4.50;99.90
3466;DHT22;1747;48.884;9.160;2023-02-12T22:30:07;4.60;99.90
3466;DHT22;1747;48.884;9.160;2023-02-12T22:32:33;4.60;99.90
3466;DHT22;1747;48.884;9.160;2023-02-12T22:35:00;4.60;99.90
3466;DHT22;1747;48.884;9.160;2023-02-12T22:37:27;4.60;99.90
3466;DHT22;1747;48.884;9.160;2023-02-12T22:39:56;4.60;99.90
3466;DHT22;1747;48.884;9.160;2023-02-12T22:42:23;4.60;99.90
3466;DHT22;1747;48.884;9.160;2023-02-12T22:44:50;4.60;99.90
3466;DHT22;1747;48.884;9.160;2023-02-12T22:47:16;4.60;99.90
3466;DHT22;1747;48.884;9.160;2023-02-12T22:49:43;4.60;99.90
3466;DHT22;1747;48.884;9.160;2023-02-12T22:52:10;4.50;99.90
3466;DHT22;1747;48.884;9.160;2023-02-12T22:54:38;4.50;99.90
3466;DHT22;1747;48.884;9.160;2023-02-12T22:57:06;4.40;99.90
3466;DHT22;1747;48.884;9.160;2023-02-12T22:59:33;4.40;99.90
3466;DHT22;1747;48.884;9.160;2023-02-12T23:01:59;4.40;99.90
3466;DHT22;1747;48.884;9.160;2023-02-12T23:04:28;4.40;99.90
3466;DHT22;1747;48.884;9.160;2023-02-12T23:06:55;4.30;99.90
3466;DHT22;1747;48.884;9.160;2023-02-12T23:09:22;4.40;99.90
3466;DHT22;1747;48.884;9.160;2023-02-12T23:11:49;4.30;99.90
3466;DHT22;1747;48.884;9.160;2023-02-12T23:14:17;4.20;99.90
3466;DHT22;1747;48.884;9.160;2023-02-12T23:16:44;4.20;99.90
3466;DHT22;1747;48.884;9.160;2023-02-12T23:19:12;4.10;99.90
3466;DHT22;1747;48.884;9.160;2023-02-12T23:21:39;4.20;99.90
3466;DHT22;1747;48.884;9.160;2023-02-12T23:24:06;4.20;99.90
3466;DHT22;1747;48.884;9.160;2023-02-12T23:26:33;4.30;99.90
3466;DHT22;1747;48.884;9.160;2023-02-12T23:29:01;4.20;99.90
3466;DHT22;1747;48.884;9.160;2023-02-12T23:31:29;4.30;99.90
3466;DHT22;1747;48.884;9.160;2023-02-12T23:33:56;4.30;99.90
3466;DHT22;1747;48.884;9.160;2023-02-12T23:36:23;4.30;99.90
3466;DHT22;1747;48.884;9.160;2023-02-12T23:38:49;4.30;99.90
3466;DHT22;1747;48.884;9.160;2023-02-12T23:41:16;4.30;99.90
3466;DHT22;1747;48.884;9.160;2023-02-12T23:43:43;4.30;99.90
3466;DHT22;1747;48.884;9.160;2023-02-12T23:46:10;4.30;99.90
3466;DHT22;1747;48.884;9.160;2023-02-12T23:48:38;4.30;99.90
3466;DHT22;1747;48.884;9.160;2023-02-12T23:51:05;4.20;99.90
3466;DHT22;1747;48.884;9.160;2023-02-12T23:53:32;4.20;99.90
3466;DHT22;1747;48.884;9.160;2023-02-12T23:55:59;4.10;99.90
3466;DHT22;1747;48.884;9.160;2023-02-12T23:58:26;4.10;99.90
